Lima, OH (45807)

6:51 AM EST on February 09, 2016 (GMT -0500)
northwest lima | | Change Station
CLOSE
Current Station
Personal Weather Station
Location: Lima, OH
Elevation: 879 ft
Nearby Weather Stations

Elev 879 ft 40.75 °N, 84.13 °W | Updated 1 minute ago

Overcast
Overcast
25.5 °F
Feels Like 21 °F
N
3.7
Wind Variable Wind from West

Today
High -- | Low -- °F
--% Chance of Precip.
Yesterday
High -- | Low -- °F
Precip. -- in
Pressure 29.65 in
Visibility 8.0 miles
Clouds Overcast 1100 ft
Windchill 21 °F
Dew Point 21 °F
Humidity 83%
Rainfall 0.00 in
Snow Depth Not available.
7:38 AM 6:03 PM
New Moon, 1% visible
METAR KAOH 091053Z AUTO 26014KT 8SM OVC011 M03/M06 A2962 RMK AO2 SLP038 T10331056
Pressure 29.65 in
Visibility 8.0 miles
Clouds Overcast 1100 ft
Windchill 21 °F
Dew Point 21 °F
Humidity 83%
Rainfall 0.00 in
Snow Depth Not available.
7:38 AM 6:03 PM
New Moon, 1% visible
METAR KAOH 091053Z AUTO 26014KT 8SM OVC011 M03/M06 A2962 RMK AO2 SLP038 T10331056

10-Day Weather Forecast

Almanac

Astronomy

Feb. 09, 2016 Rise Set
Actual Time
Civil Twilight
Nautical Twilight
Astronomical Twilight
Moon
Length of Visible Light
Length of Day
Tomorrow will be .
, % of the Moon is Illuminated

Today's Extremes

State Highs State Lows

Community

WunderPhotos

Upload Photos

1,891,565 photos uploaded!

WunderBlog® & News

Nearby

Air Quality

  Air Quality AQ Index Pollutant
Not available.

Snow Depth

Station Depth Elevation

Earthquake Activity

City Distance Mag. Time & Date
Minimum magnitude displayed is 2.5.

Coastal Water Temperatures

Place Temperature

Stations

Nearby Weather Stations

Station Location Temp. Windchill Dew Point Humidity Wind Precip. Elev Updated Type
                   

Watches & Warnings

There are currently no watches in effect.